Time;durP1;ratioP1;P1;durP2;ratioP2;P2;SDS_P1;SDS_P2;PMS_P1;PMS_P2;Temp;Humidity;BMP_temperature;BMP_pressure;BME280_temperature;BME280_humidity;BME280_pressure;Samples;Min_cycle;Max_cycle;Signal;HPM_P1;HPM_P2
2022/12/03 00:01:58;;;;;;;28.40;22.73;;;3.70;99.90;;;;;;5107218;28;20200;-74
2022/12/03 00:04:23;;;;;;;26.70;23.33;;;3.70;99.90;;;;;;5112395;28;20615;-74
2022/12/03 00:06:49;;;;;;;26.20;20.17;;;3.70;99.90;;;;;;5112052;28;20233;-74
2022/12/03 00:09:15;;;;;;;27.23;21.23;;;3.70;99.90;;;;;;5110947;28;20195;-74
2022/12/03 00:11:41;;;;;;;21.30;18.27;;;3.70;99.90;;;;;;5099031;28;20180;-74
2022/12/03 00:14:06;;;;;;;26.10;19.43;;;3.70;99.90;;;;;;5092171;28;20183;-74
2022/12/03 00:16:32;;;;;;;24.17;20.87;;;3.70;99.90;;;;;;5090808;28;20321;-74
2022/12/03 00:18:58;;;;;;;29.27;24.80;;;3.70;99.90;;;;;;5091655;28;20279;-74
2022/12/03 00:21:24;;;;;;;25.50;22.73;;;3.70;99.90;;;;;;5090976;28;20193;-74
2022/12/03 00:23:49;;;;;;;29.33;23.47;;;3.70;99.90;;;;;;5091751;28;20177;-74
2022/12/03 00:26:15;;;;;;;26.40;20.80;;;3.70;99.90;;;;;;5091519;28;20181;-73
2022/12/03 00:28:41;;;;;;;22.87;18.60;;;3.70;99.90;;;;;;5112054;22;20243;-77
2022/12/03 00:31:07;;;;;;;29.13;18.73;;;3.70;99.90;;;;;;5091615;28;20182;-74
2022/12/03 00:33:32;;;;;;;24.13;18.57;;;3.70;99.90;;;;;;5090593;28;20274;-74
2022/12/03 00:35:58;;;;;;;23.73;18.37;;;3.70;99.90;;;;;;5091441;28;20705;-74
2022/12/03 00:38:24;;;;;;;25.73;20.97;;;3.70;99.90;;;;;;5091297;28;20724;-75
2022/12/03 00:40:49;;;;;;;24.10;17.17;;;3.70;99.90;;;;;;5106187;28;20268;-74
2022/12/03 00:43:15;;;;;;;26.57;18.13;;;3.70;99.90;;;;;;5091250;28;20208;-75
2022/12/03 00:45:41;;;;;;;27.90;19.03;;;3.70;99.90;;;;;;5091493;28;20183;-75
2022/12/03 00:48:07;;;;;;;22.53;19.10;;;3.70;99.90;;;;;;5090917;28;20263;-75
2022/12/03 00:50:32;;;;;;;23.47;19.67;;;3.80;99.90;;;;;;5092679;28;20220;-75
2022/12/03 00:52:58;;;;;;;26.53;19.97;;;3.80;99.90;;;;;;5111685;28;20188;-75
2022/12/03 00:55:24;;;;;;;28.10;21.90;;;3.80;99.90;;;;;;5111552;28;20195;-75
2022/12/03 00:57:49;;;;;;;25.23;21.03;;;3.70;99.90;;;;;;5111086;28;20175;-75
2022/12/03 01:00:16;;;;;;;25.47;20.43;;;3.70;99.90;;;;;;5111786;28;20213;-75
2022/12/03 01:02:43;;;;;;;27.67;20.53;;;3.70;99.90;;;;;;5091606;28;20235;-75
2022/12/03 01:05:08;;;;;;;25.07;20.93;;;3.70;99.90;;;;;;5090996;28;20176;-74
2022/12/03 01:07:35;;;;;;;23.37;19.57;;;3.70;99.90;;;;;;5090678;28;20264;-75
2022/12/03 01:10:02;;;;;;;28.33;20.53;;;3.70;99.90;;;;;;5089837;28;20207;-74
2022/12/03 01:12:28;;;;;;;20.93;18.07;;;3.70;99.90;;;;;;5108323;28;20183;-76
2022/12/03 01:14:54;;;;;;;23.43;19.53;;;3.70;99.90;;;;;;5111461;28;20525;-75
2022/12/03 01:17:19;;;;;;;21.93;18.50;;;3.70;99.90;;;;;;5110949;28;20183;-75
2022/12/03 01:19:45;;;;;;;26.87;20.77;;;3.70;99.90;;;;;;5111320;28;20210;-75
2022/12/03 01:22:11;;;;;;;27.43;24.53;;;3.80;99.90;;;;;;5111265;28;20199;-74
2022/12/03 01:24:36;;;;;;;25.70;23.13;;;3.70;99.90;;;;;;5111707;28;20698;-75
2022/12/03 01:27:02;;;;;;;24.20;21.83;;;3.80;99.90;;;;;;5111116;28;20214;-75
2022/12/03 01:29:28;;;;;;;27.10;24.33;;;3.80;99.90;;;;;;5111361;28;20211;-75
2022/12/03 01:34:38;;;;;;;25.27;22.43;;;3.80;99.90;;;;;;5090967;28;20185;-76
2022/12/03 01:37:03;;;;;;;22.73;20.47;;;3.80;99.90;;;;;;5090820;28;20242;-76
2022/12/03 01:39:29;;;;;;;28.20;21.27;;;3.80;99.90;;;;;;5090822;28;20204;-75
2022/12/03 01:41:57;;;;;;;23.10;20.30;;;3.80;99.90;;;;;;5102868;28;20696;-76
2022/12/03 01:44:26;;;;;;;26.00;23.37;;;3.80;99.90;;;;;;5088037;28;20180;-76
2022/12/03 01:46:54;;;;;;;27.83;25.17;;;3.80;99.90;;;;;;5090213;28;20657;-76
2022/12/03 01:49:24;;;;;;;24.73;22.17;;;3.80;99.90;;;;;;5090338;28;20696;-76
2022/12/03 01:51:51;;;;;;;24.50;21.87;;;3.80;99.90;;;;;;5097181;28;20202;-74
2022/12/03 01:54:27;;;;;;;21.90;18.70;;;3.80;99.90;;;;;;5093717;28;20188;-76
2022/12/03 01:56:54;;;;;;;20.77;16.13;;;3.80;99.90;;;;;;5090272;28;20184;-76
2022/12/03 01:59:24;;;;;;;23.50;17.80;;;3.80;99.90;;;;;;5090501;28;20203;-76
2022/12/03 02:01:50;;;;;;;20.90;18.07;;;3.80;99.90;;;;;;5099630;28;20207;-75
2022/12/03 02:04:18;;;;;;;22.00;17.77;;;3.80;99.90;;;;;;5112730;28;20670;-75
2022/12/03 02:06:44;;;;;;;23.07;18.23;;;3.80;99.90;;;;;;5114239;28;20222;-76
2022/12/03 02:09:11;;;;;;;20.43;16.13;;;3.80;99.90;;;;;;5114077;28;20277;-76
2022/12/03 02:11:41;;;;;;;23.60;17.13;;;3.80;99.90;;;;;;5110277;28;20664;-74
2022/12/03 02:14:12;;;;;;;19.40;15.73;;;3.70;99.90;;;;;;5092751;28;20518;-76
2022/12/03 02:16:40;;;;;;;21.00;15.43;;;3.80;99.90;;;;;;5092608;28;20189;-74
2022/12/03 02:19:25;;;;;;;20.33;15.57;;;3.80;99.90;;;;;;5093292;28;20306;-76
2022/12/03 02:22:06;;;;;;;23.73;15.93;;;3.70;99.90;;;;;;5099158;28;20250;-76
2022/12/03 02:25:11;;;;;;;21.20;15.27;;;3.70;99.90;;;;;;5112802;28;20179;-76
2022/12/03 02:27:37;;;;;;;21.83;15.10;;;3.70;99.90;;;;;;5113479;28;20233;-76
2022/12/03 02:30:05;;;;;;;23.20;16.27;;;3.70;99.90;;;;;;5112343;28;20829;-76
2022/12/03 02:32:30;;;;;;;22.13;16.10;;;3.70;99.90;;;;;;5102452;28;20180;-75
2022/12/03 02:34:57;;;;;;;25.50;15.83;;;3.70;99.90;;;;;;5093367;28;20187;-76
2022/12/03 02:37:28;;;;;;;24.27;16.57;;;3.70;99.90;;;;;;5092765;28;20188;-76
2022/12/03 02:39:57;;;;;;;21.17;15.50;;;3.80;99.90;;;;;;5092055;28;20213;-76
2022/12/03 02:42:35;;;;;;;23.70;21.00;;;3.80;99.90;;;;;;5102410;28;20210;-75
2022/12/03 02:45:07;;;;;;;23.67;21.17;;;3.80;99.90;;;;;;5113075;28;20182;-76
2022/12/03 02:47:39;;;;;;;19.40;15.73;;;3.80;99.90;;;;;;5111943;28;20191;-74
2022/12/03 02:50:05;;;;;;;20.33;15.30;;;3.80;99.90;;;;;;5113397;28;20262;-75
2022/12/03 02:52:31;;;;;;;22.80;19.07;;;3.90;99.90;;;;;;5102690;28;20665;-74
2022/12/03 02:54:58;;;;;;;20.57;17.03;;;3.80;99.90;;;;;;5092956;28;20242;-75
2022/12/03 02:57:24;;;;;;;21.73;16.13;;;3.80;99.90;;;;;;5092389;28;20275;-75
2022/12/03 02:59:50;;;;;;;16.80;14.07;;;3.90;99.90;;;;;;5092833;28;20301;-75
2022/12/03 03:02:16;;;;;;;20.33;15.80;;;3.80;99.90;;;;;;5100869;28;20206;-75
2022/12/03 03:04:43;;;;;;;18.93;15.97;;;3.90;99.90;;;;;;5101662;28;20184;-75
2022/12/03 03:07:09;;;;;;;20.70;16.00;;;3.90;99.90;;;;;;5092342;28;20176;-76
2022/12/03 03:09:35;;;;;;;21.50;17.27;;;3.90;99.90;;;;;;5092450;28;20892;-75
2022/12/03 03:12:01;;;;;;;25.17;20.13;;;3.90;99.90;;;;;;5094337;28;20184;-76
2022/12/03 03:14:26;;;;;;;23.83;20.37;;;3.90;99.90;;;;;;5113033;28;20179;-76
2022/12/03 03:16:55;;;;;;;23.67;21.17;;;3.90;99.90;;;;;;5111625;28;20270;-75
2022/12/03 03:19:25;;;;;;;26.20;21.40;;;3.80;99.90;;;;;;5112929;28;20672;-76
2022/12/03 03:21:52;;;;;;;26.87;24.03;;;3.80;99.90;;;;;;5110185;28;20241;-75
2022/12/03 03:24:18;;;;;;;27.97;25.13;;;3.80;99.90;;;;;;5091352;28;20250;-76
2022/12/03 03:26:44;;;;;;;29.13;26.23;;;3.80;99.90;;;;;;5091197;28;20196;-75
2022/12/03 03:29:11;;;;;;;25.90;21.27;;;3.80;99.90;;;;;;5092428;28;20205;-76
2022/12/03 03:31:37;;;;;;;24.00;18.70;;;3.80;99.90;;;;;;5091349;28;20204;-75
2022/12/03 03:34:04;;;;;;;26.93;18.93;;;3.80;99.90;;;;;;5091764;28;20180;-76
2022/12/03 03:36:30;;;;;;;26.73;18.37;;;3.80;99.90;;;;;;5091394;28;20180;-76
2022/12/03 03:38:56;;;;;;;25.37;19.90;;;3.70;99.90;;;;;;5091898;28;20707;-76
2022/12/03 03:41:24;;;;;;;28.50;21.67;;;3.70;99.90;;;;;;5092481;28;20174;-76
2022/12/03 03:43:50;;;;;;;27.77;20.93;;;3.70;99.90;;;;;;5092220;28;20562;-76
2022/12/03 03:46:17;;;;;;;33.70;26.00;;;3.70;99.90;;;;;;5092177;28;20177;-76
2022/12/03 03:48:43;;;;;;;30.13;27.03;;;3.70;99.90;;;;;;5101343;28;20211;-76
2022/12/03 03:51:09;;;;;;;30.50;27.30;;;3.70;99.90;;;;;;5112351;28;20377;-76
2022/12/03 03:53:39;;;;;;;29.53;26.40;;;3.70;99.90;;;;;;5112773;28;20240;-76
2022/12/03 03:56:05;;;;;;;29.10;25.60;;;3.70;99.90;;;;;;5112744;28;20183;-75
2022/12/03 03:58:31;;;;;;;27.73;24.40;;;3.70;99.90;;;;;;5110883;28;20183;-76
2022/12/03 04:00:57;;;;;;;30.47;24.90;;;3.70;99.90;;;;;;5111491;28;20187;-74
2022/12/03 04:03:23;;;;;;;27.30;20.13;;;3.70;99.90;;;;;;5111670;28;20204;-76
2022/12/03 04:05:49;;;;;;;24.07;18.13;;;3.70;99.90;;;;;;5091872;28;20275;-76
2022/12/03 04:08:15;;;;;;;29.03;24.33;;;3.70;99.90;;;;;;5094369;28;20540;-75
2022/12/03 04:13:25;;;;;;;35.93;30.57;;;3.70;99.90;;;;;;5092117;28;20600;-76
2022/12/03 04:15:51;;;;;;;33.97;30.33;;;3.70;99.90;;;;;;5091783;28;20275;-76
2022/12/03 04:23:46;;;;;;;33.63;25.87;;;3.80;99.90;;;;;;5111728;28;20219;-75
2022/12/03 04:28:56;;;;;;;30.50;18.67;;;3.70;99.90;;;;;;5111400;28;20214;-76
2022/12/03 04:36:51;;;;;;;33.10;28.47;;;3.70;99.90;;;;;;5091555;28;20187;-75
2022/12/03 04:39:17;;;;;;;31.57;26.97;;;3.70;99.90;;;;;;5090465;28;20762;-75
2022/12/03 04:41:43;;;;;;;35.30;29.27;;;3.70;99.90;;;;;;5090184;28;20176;-75
2022/12/03 04:46:53;;;;;;;32.43;28.53;;;3.80;99.90;;;;;;5092160;28;20270;-75
2022/12/03 04:49:19;;;;;;;32.67;28.17;;;3.80;99.90;;;;;;5089843;28;20680;-75
2022/12/03 04:51:45;;;;;;;33.80;30.00;;;3.80;99.90;;;;;;5091433;28;20275;-76
2022/12/03 04:54:10;;;;;;;28.47;21.93;;;3.80;99.90;;;;;;5091351;28;20671;-74
2022/12/03 04:56:36;;;;;;;29.27;25.83;;;3.80;99.90;;;;;;5091389;28;20710;-75
2022/12/03 04:59:02;;;;;;;31.10;26.80;;;3.80;99.90;;;;;;5093078;28;20195;-75
2022/12/03 05:01:28;;;;;;;27.60;20.03;;;3.70;99.90;;;;;;5091884;28;20179;-75
2022/12/03 05:03:54;;;;;;;29.87;20.40;;;3.70;99.90;;;;;;5091466;28;20173;-75
2022/12/03 05:06:19;;;;;;;33.10;23.77;;;3.70;99.90;;;;;;5090028;28;20187;-75
2022/12/03 05:08:45;;;;;;;32.00;25.00;;;3.80;99.90;;;;;;5090842;28;20196;-75
2022/12/03 05:11:11;;;;;;;33.87;29.23;;;3.80;99.90;;;;;;5091243;28;20184;-76
2022/12/03 05:13:36;;;;;;;34.27;29.70;;;3.80;99.90;;;;;;5102672;28;20259;-76
2022/12/03 05:16:02;;;;;;;34.57;25.87;;;3.80;99.90;;;;;;5110235;28;20187;-76
2022/12/03 05:18:28;;;;;;;29.30;22.30;;;3.80;99.90;;;;;;5110727;28;20188;-75
2022/12/03 05:20:54;;;;;;;32.77;22.57;;;3.80;99.90;;;;;;5111445;28;20187;-76
2022/12/03 05:23:20;;;;;;;34.17;28.17;;;3.80;99.90;;;;;;5111551;28;20212;-75
2022/12/03 05:25:46;;;;;;;31.30;23.17;;;3.80;99.90;;;;;;5112995;28;20187;-77
2022/12/03 05:28:12;;;;;;;34.37;29.80;;;3.80;99.90;;;;;;5101595;28;21043;-77
2022/12/03 05:30:38;;;;;;;33.17;28.27;;;3.80;99.90;;;;;;5075164;28;20289;-76
2022/12/03 05:33:03;;;;;;;31.77;26.33;;;3.80;99.90;;;;;;5080051;28;20188;-77
2022/12/03 05:35:29;;;;;;;30.70;25.13;;;3.80;99.90;;;;;;5092107;28;20185;-77
2022/12/03 05:37:55;;;;;;;34.00;26.77;;;3.80;99.90;;;;;;5097512;28;20213;-76
2022/12/03 05:40:21;;;;;;;37.03;27.37;;;3.80;99.90;;;;;;5097692;28;20208;-77
2022/12/03 05:42:52;;;;;;;36.43;26.83;;;3.80;99.90;;;;;;5093975;28;20215;-77
2022/12/03 05:45:33;;;;;;;33.00;25.00;;;3.80;99.90;;;;;;5105992;28;20192;-75
2022/12/03 05:48:00;;;;;;;34.43;26.47;;;3.80;99.90;;;;;;5107896;28;20222;-77
2022/12/03 05:50:29;;;;;;;36.83;27.47;;;3.80;99.90;;;;;;5084847;28;20261;-78
2022/12/03 05:52:55;;;;;;;34.20;25.73;;;3.80;99.90;;;;;;5075411;28;20185;-76
2022/12/03 05:55:21;;;;;;;37.43;26.50;;;3.70;99.90;;;;;;5104576;28;20730;-77
2022/12/03 05:57:47;;;;;;;35.80;29.37;;;3.80;99.90;;;;;;5114110;28;20764;-77
2022/12/03 06:00:16;;;;;;;34.37;27.73;;;3.80;99.90;;;;;;5115279;28;20235;-77
2022/12/03 06:02:42;;;;;;;35.33;25.87;;;3.80;99.90;;;;;;5115062;28;20218;-77
2022/12/03 06:05:09;;;;;;;37.27;28.10;;;3.80;99.90;;;;;;5117740;28;20186;-76
2022/12/03 06:07:35;;;;;;;32.53;22.47;;;3.80;99.90;;;;;;5115825;28;20180;-76
2022/12/03 06:10:02;;;;;;;35.93;29.13;;;3.80;99.90;;;;;;5108645;28;20294;-76
2022/12/03 06:12:27;;;;;;;37.57;29.00;;;3.80;99.90;;;;;;5114489;28;20183;-77
2022/12/03 06:14:53;;;;;;;37.27;28.80;;;3.80;99.90;;;;;;5114649;28;20174;-77
2022/12/03 06:17:19;;;;;;;40.90;30.57;;;3.80;99.90;;;;;;5113290;28;20708;-76
2022/12/03 06:19:46;;;;;;;36.67;29.07;;;3.80;99.90;;;;;;5113816;28;20583;-76
2022/12/03 06:22:12;;;;;;;40.63;30.43;;;3.80;99.90;;;;;;5103387;28;20201;-77
2022/12/03 06:24:38;;;;;;;36.13;25.53;;;3.80;99.90;;;;;;5092641;28;20595;-76
2022/12/03 06:27:03;;;;;;;38.70;25.40;;;3.80;99.90;;;;;;5093266;28;20634;-76
2022/12/03 06:29:29;;;;;;;39.57;27.07;;;3.80;99.90;;;;;;5104442;22;20229;-76
2022/12/03 06:31:55;;;;;;;34.03;27.37;;;3.80;99.90;;;;;;5053232;28;20287;-75
2022/12/03 06:34:20;;;;;;;35.33;26.13;;;3.80;99.90;;;;;;5053110;28;20182;-75
2022/12/03 06:36:48;;;;;;;35.73;20.63;;;3.80;99.90;;;;;;5052981;28;20189;-76
2022/12/03 06:39:15;;;;;;;33.43;18.63;;;3.80;99.90;;;;;;5055131;28;20185;-76
2022/12/03 06:41:41;;;;;;;36.97;20.70;;;3.90;99.90;;;;;;5073494;28;20196;-76
2022/12/03 06:44:06;;;;;;;37.80;21.00;;;3.90;99.90;;;;;;5073103;28;20170;-76
2022/12/03 06:46:32;;;;;;;40.47;21.77;;;3.90;99.90;;;;;;5072853;28;20708;-75
2022/12/03 06:48:58;;;;;;;40.47;24.33;;;3.80;99.90;;;;;;5071550;28;20245;-75
2022/12/03 06:51:25;;;;;;;45.77;25.27;;;3.80;99.90;;;;;;5072818;28;20192;-75
2022/12/03 06:53:51;;;;;;;49.43;24.37;;;3.80;99.90;;;;;;5071790;28;20239;-75
2022/12/03 06:56:17;;;;;;;42.57;23.63;;;3.80;99.90;;;;;;5072279;28;20243;-75
2022/12/03 06:58:43;;;;;;;38.90;22.43;;;3.90;99.90;;;;;;5072415;28;20191;-75
2022/12/03 07:01:09;;;;;;;49.50;22.30;;;3.90;99.90;;;;;;5072673;28;20206;-75
2022/12/03 07:03:36;;;;;;;47.33;23.37;;;3.90;99.90;;;;;;5060827;28;20295;-75
2022/12/03 07:06:01;;;;;;;51.20;25.27;;;3.90;99.90;;;;;;5065412;28;20178;-76
2022/12/03 07:08:27;;;;;;;50.73;22.80;;;3.90;99.90;;;;;;5072286;28;20516;-75
2022/12/03 07:10:53;;;;;;;47.10;22.80;;;3.90;99.90;;;;;;5071998;28;20201;-75
2022/12/03 07:13:19;;;;;;;45.23;22.67;;;3.90;99.90;;;;;;5073063;28;20240;-75
2022/12/03 07:15:45;;;;;;;51.07;22.83;;;3.90;99.90;;;;;;5072442;28;20271;-75
2022/12/03 07:18:10;;;;;;;45.33;25.73;;;3.90;99.90;;;;;;5070107;28;20189;-75
2022/12/03 07:20:36;;;;;;;47.47;23.50;;;3.80;99.90;;;;;;5052341;28;20230;-76
2022/12/03 07:23:02;;;;;;;45.67;23.10;;;3.80;99.90;;;;;;5051155;28;20216;-75
2022/12/03 07:25:28;;;;;;;42.10;22.87;;;3.80;99.90;;;;;;5052096;28;20215;-75
2022/12/03 07:27:54;;;;;;;42.93;23.13;;;3.80;99.90;;;;;;5050762;28;20227;-74
2022/12/03 07:30:20;;;;;;;43.23;21.07;;;3.80;99.90;;;;;;5055398;28;20213;-74
2022/12/03 07:32:46;;;;;;;41.53;22.53;;;3.90;99.90;;;;;;5070690;28;20177;-74
2022/12/03 07:35:12;;;;;;;41.17;21.10;;;3.90;99.90;;;;;;5072055;28;20560;-72
2022/12/03 07:37:38;;;;;;;37.67;21.33;;;4.00;99.90;;;;;;5071689;28;20227;-76
2022/12/03 07:40:05;;;;;;;44.00;25.13;;;3.90;99.90;;;;;;5072015;28;20749;-76
2022/12/03 07:42:31;;;;;;;43.70;23.00;;;3.90;99.90;;;;;;5071618;28;20205;-77
2022/12/03 07:44:56;;;;;;;39.97;22.70;;;3.90;99.90;;;;;;5056909;28;20659;-76
2022/12/03 07:47:22;;;;;;;37.77;21.80;;;3.90;99.90;;;;;;5050354;28;20189;-76
2022/12/03 07:49:48;;;;;;;48.03;25.33;;;3.90;99.90;;;;;;5050394;28;20759;-75
2022/12/03 07:52:14;;;;;;;42.97;25.03;;;3.90;99.90;;;;;;5050632;28;20216;-77
2022/12/03 07:54:39;;;;;;;44.93;24.63;;;3.90;99.90;;;;;;5050544;28;20242;-75
2022/12/03 07:57:06;;;;;;;31.50;19.87;;;3.90;99.90;;;;;;5052811;28;20188;-76
2022/12/03 07:59:32;;;;;;;36.50;21.30;;;3.80;99.90;;;;;;5064505;28;20784;-76
2022/12/03 08:01:57;;;;;;;35.50;22.23;;;3.80;99.90;;;;;;5050606;28;20231;-76
2022/12/03 08:04:23;;;;;;;35.00;21.70;;;3.80;99.90;;;;;;5050191;28;20180;-76
2022/12/03 08:06:49;;;;;;;33.37;22.90;;;3.80;99.90;;;;;;5050922;28;20560;-76
2022/12/03 08:09:15;;;;;;;27.67;19.90;;;3.70;99.90;;;;;;5050726;28;20557;-77
2022/12/03 08:11:41;;;;;;;34.47;21.10;;;3.80;99.90;;;;;;5049500;28;20209;-76
2022/12/03 08:14:12;;;;;;;34.37;22.60;;;3.70;99.90;;;;;;5051678;28;20646;-77
2022/12/03 08:16:40;;;;;;;31.67;19.03;;;3.70;99.90;;;;;;5051273;28;20181;-76
2022/12/03 08:19:10;;;;;;;30.43;19.30;;;3.70;99.90;;;;;;5053978;28;20171;-78
2022/12/03 08:21:36;;;;;;;36.87;21.50;;;3.70;99.90;;;;;;5053248;28;20190;-76
2022/12/03 08:24:20;;;;;;;32.00;20.07;;;3.80;99.90;;;;;;5067768;28;20174;-76
2022/12/03 08:26:47;;;;;;;37.17;22.77;;;3.80;99.90;;;;;;5070784;28;20178;-77
2022/12/03 08:29:17;;;;;;;35.43;22.30;;;3.80;99.90;;;;;;5071150;28;20188;-76
2022/12/03 08:31:53;;;;;;;31.63;19.00;;;3.80;99.90;;;;;;5070250;28;20805;-77
2022/12/03 08:34:25;;;;;;;32.53;18.57;;;3.80;99.90;;;;;;5071479;28;20263;-77
2022/12/03 08:36:57;;;;;;;31.70;18.77;;;3.80;99.90;;;;;;5062288;28;20271;-77
2022/12/03 08:39:32;;;;;;;32.43;18.57;;;3.80;99.90;;;;;;5050020;28;20228;-77
2022/12/03 08:45:30;;;;;;;31.57;18.83;;;3.70;99.90;;;;;;5051025;28;20185;-77
2022/12/03 08:48:13;;;;;;;29.10;15.77;;;3.80;99.90;;;;;;5049469;28;20177;-77
2022/12/03 08:50:41;;;;;;;28.83;18.97;;;3.80;99.90;;;;;;5058238;28;20202;-77
2022/12/03 08:53:12;;;;;;;32.53;20.57;;;3.70;99.90;;;;;;5057674;28;20647;-77
2022/12/03 08:55:44;;;;;;;28.43;19.20;;;3.70;99.90;;;;;;5050868;28;20190;-77
2022/12/03 08:58:42;;;;;;;27.97;19.50;;;3.80;99.90;;;;;;5050443;28;20228;-76
2022/12/03 09:01:11;;;;;;;23.73;17.43;;;3.80;99.90;;;;;;5051242;28;20217;-77
2022/12/03 09:03:46;;;;;;;33.97;18.87;;;3.90;99.90;;;;;;5041888;28;20244;-77
2022/12/03 09:06:11;;;;;;;35.53;21.43;;;3.80;99.90;;;;;;5043091;28;20652;-76
2022/12/03 09:08:37;;;;;;;31.20;20.73;;;3.90;99.90;;;;;;5069255;28;20261;-77
2022/12/03 09:11:03;;;;;;;27.97;19.13;;;3.90;99.90;;;;;;5073695;28;20212;-77
2022/12/03 09:13:29;;;;;;;29.20;17.97;;;3.80;99.90;;;;;;5074558;28;20192;-77
2022/12/03 09:15:54;;;;;;;27.80;18.70;;;3.70;99.90;;;;;;5073877;28;20185;-76
2022/12/03 09:18:20;;;;;;;30.80;19.20;;;3.70;99.90;;;;;;5062840;28;20213;-77
2022/12/03 09:20:46;;;;;;;24.87;16.70;;;3.70;99.90;;;;;;5054784;28;20217;-77
2022/12/03 09:23:11;;;;;;;32.10;17.27;;;3.60;99.90;;;;;;5054275;28;20632;-73
2022/12/03 09:25:37;;;;;;;22.73;15.60;;;3.60;99.90;;;;;;5054620;28;20188;-72
2022/12/03 09:28:04;;;;;;;22.40;15.43;;;3.60;99.90;;;;;;5054381;28;20569;-73
2022/12/03 09:30:31;;;;;;;28.27;18.93;;;3.50;99.90;;;;;;5052410;28;20577;-72
2022/12/03 09:32:58;;;;;;;25.17;18.60;;;3.50;99.90;;;;;;5054766;28;20178;-72
2022/12/03 09:35:24;;;;;;;31.20;20.97;;;3.50;99.90;;;;;;5054078;28;20276;-75
2022/12/03 09:37:50;;;;;;;24.17;17.70;;;3.50;99.90;;;;;;5039808;28;20804;-74
2022/12/03 09:40:16;;;;;;;27.53;18.80;;;3.60;99.90;;;;;;5035110;28;20318;-74
2022/12/03 09:42:42;;;;;;;33.17;19.20;;;3.60;99.90;;;;;;5040731;28;20291;-74
2022/12/03 09:45:11;;;;;;;35.20;30.13;;;3.70;99.90;;;;;;5053028;28;20171;-75
2022/12/03 09:47:38;;;;;;;30.93;22.67;;;3.60;99.90;;;;;;5052621;28;20185;-75
2022/12/03 09:50:05;;;;;;;29.40;22.30;;;3.70;99.90;;;;;;5055323;28;20238;-74
2022/12/03 09:52:33;;;;;;;35.60;26.47;;;3.70;99.90;;;;;;5065000;28;20173;-74
2022/12/03 09:55:16;;;;;;;20.97;13.20;;;3.80;99.90;;;;;;5065192;28;20824;-75
2022/12/03 09:57:42;;;;;;;29.13;17.97;;;3.70;99.90;;;;;;5072752;28;20238;-75
2022/12/03 10:00:28;;;;;;;27.03;17.10;;;3.60;99.90;;;;;;5072805;28;20201;-74
2022/12/03 10:02:58;;;;;;;32.20;22.93;;;3.70;99.90;;;;;;5073175;28;20531;-75
2022/12/03 10:05:24;;;;;;;30.87;21.97;;;3.80;99.90;;;;;;5073973;28;20212;-74
2022/12/03 10:07:51;;;;;;;27.30;17.20;;;3.80;99.90;;;;;;5064438;28;20205;-74
2022/12/03 10:10:20;;;;;;;23.00;14.10;;;3.80;99.90;;;;;;5064769;28;20203;-75
2022/12/03 10:12:47;;;;;;;27.40;16.03;;;3.70;99.90;;;;;;5042892;28;20198;-74
2022/12/03 10:15:16;;;;;;;18.63;13.93;;;3.70;99.90;;;;;;5033533;28;20196;-75
2022/12/03 10:17:43;;;;;;;23.20;16.40;;;3.70;99.90;;;;;;5041954;28;20189;-75
2022/12/03 10:20:14;;;;;;;25.07;17.27;;;3.70;99.90;;;;;;5056212;28;20238;-75
2022/12/03 10:22:40;;;;;;;25.80;17.00;;;3.70;99.90;;;;;;5063745;28;20208;-77
2022/12/03 10:25:12;;;;;;;18.37;13.57;;;3.70;99.90;;;;;;5074950;28;20526;-75
2022/12/03 10:27:39;;;;;;;26.77;15.20;;;3.70;99.90;;;;;;5071678;28;20200;-76
2022/12/03 10:30:18;;;;;;;19.90;13.83;;;3.70;99.90;;;;;;5073136;28;20262;-75
2022/12/03 10:32:45;;;;;;;18.67;13.43;;;3.60;99.90;;;;;;5073129;28;20184;-75
2022/12/03 10:35:19;;;;;;;20.77;14.23;;;3.60;99.90;;;;;;5071763;28;20638;-75
2022/12/03 10:38:17;;;;;;;19.43;13.93;;;3.50;99.90;;;;;;5072460;28;20184;-75
2022/12/03 10:40:42;;;;;;;23.90;15.23;;;3.50;99.90;;;;;;5061479;28;20213;-75
2022/12/03 10:43:17;;;;;;;19.07;13.80;;;3.50;99.90;;;;;;5052968;28;20228;-75
2022/12/03 10:45:45;;;;;;;21.20;15.90;;;3.60;99.90;;;;;;5053037;28;20191;-75
2022/12/03 10:48:14;;;;;;;23.93;15.17;;;3.60;99.90;;;;;;5052135;28;20177;-75
2022/12/03 10:51:08;;;;;;;18.70;13.93;;;3.70;99.90;;;;;;5053080;28;20617;-74
2022/12/03 10:53:37;;;;;;;20.70;14.67;;;3.80;99.90;;;;;;5031723;28;20201;-75
2022/12/03 10:56:05;;;;;;;18.70;13.33;;;3.90;99.90;;;;;;5031559;28;20183;-75
2022/12/03 10:58:36;;;;;;;21.23;15.80;;;3.90;99.90;;;;;;5031277;28;20727;-75
2022/12/03 11:01:12;;;;;;;19.57;16.70;;;3.70;99.90;;;;;;5032847;28;20555;-75
2022/12/03 11:03:38;;;;;;;11.23;10.37;;;3.70;99.90;;;;;;5032394;28;20287;-75
2022/12/03 11:06:05;;;;;;;19.57;15.20;;;3.70;99.90;;;;;;5059335;28;20185;-75
2022/12/03 11:08:33;;;;;;;24.40;14.73;;;3.70;99.90;;;;;;5070981;28;20186;-75
2022/12/03 11:11:11;;;;;;;19.03;12.53;;;3.70;99.90;;;;;;5070949;28;20200;-76
2022/12/03 11:13:37;;;;;;;23.33;15.00;;;3.70;99.90;;;;;;5071226;28;20586;-75
2022/12/03 11:16:04;;;;;;;25.13;14.03;;;3.70;99.90;;;;;;5072539;28;20189;-76
2022/12/03 11:18:36;;;;;;;24.70;14.30;;;3.70;99.90;;;;;;5065498;28;22119;-75
2022/12/03 11:21:05;;;;;;;19.80;14.33;;;3.80;99.90;;;;;;5056323;28;20216;-76
2022/12/03 11:23:43;;;;;;;21.17;14.37;;;3.80;99.90;;;;;;5050786;28;20722;-75
2022/12/03 11:26:37;;;;;;;23.27;15.10;;;3.80;99.90;;;;;;5051739;28;20185;-76
2022/12/03 11:29:11;;;;;;;18.70;17.07;;;3.90;99.90;;;;;;5051745;28;20901;-76
2022/12/03 11:31:43;;;;;;;23.47;18.37;;;3.80;99.90;;;;;;5052592;28;20203;-77
2022/12/03 11:34:19;;;;;;;23.00;18.60;;;3.80;99.90;;;;;;5068201;28;20276;-76
2022/12/03 11:37:09;;;;;;;19.50;16.47;;;3.70;99.90;;;;;;5071915;28;20185;-77
2022/12/03 11:39:50;;;;;;;23.70;14.87;;;3.70;99.90;;;;;;5071208;28;20700;-77
2022/12/03 11:42:25;;;;;;;24.77;15.77;;;3.70;99.90;;;;;;5074709;28;20304;-76
2022/12/03 11:45:03;;;;;;;21.43;15.37;;;3.70;99.90;;;;;;5070990;28;20636;-75
2022/12/03 11:47:32;;;;;;;21.10;18.20;;;3.80;99.90;;;;;;5056774;28;20189;-77
2022/12/03 11:49:58;;;;;;;25.53;17.33;;;3.80;99.90;;;;;;5052102;28;20194;-77
2022/12/03 11:52:31;;;;;;;28.97;17.53;;;3.70;99.90;;;;;;5052072;28;20182;-79
2022/12/03 11:55:13;;;;;;;14.03;11.70;;;3.70;99.90;;;;;;5049253;28;20269;-78
2022/12/03 11:57:39;;;;;;;19.23;13.87;;;3.80;99.90;;;;;;5049299;28;20198;-78
2022/12/03 12:00:22;;;;;;;20.90;18.73;;;3.90;99.90;;;;;;5056731;28;20294;-76
2022/12/03 12:02:50;;;;;;;17.43;15.23;;;3.70;99.90;;;;;;5071187;28;20209;-76
2022/12/03 12:05:20;;;;;;;26.20;17.77;;;3.70;99.90;;;;;;5060671;28;20208;-76
2022/12/03 12:07:47;;;;;;;25.90;17.73;;;3.70;99.90;;;;;;5048723;28;20342;-76
2022/12/03 12:10:32;;;;;;;29.00;18.83;;;3.70;99.90;;;;;;5049314;28;20742;-78
2022/12/03 12:12:58;;;;;;;20.20;15.10;;;3.80;99.90;;;;;;5051216;28;20188;-76
2022/12/03 12:15:40;;;;;;;20.63;14.07;;;3.80;99.90;;;;;;5067455;28;20183;-76
2022/12/03 12:18:37;;;;;;;25.57;19.60;;;3.80;99.90;;;;;;5069959;28;20713;-75
2022/12/03 12:21:46;;;;;;;22.13;16.03;;;3.60;99.90;;;;;;5071549;28;20206;-75
2022/12/03 12:24:40;;;;;;;25.90;19.93;;;3.60;99.90;;;;;;5079271;28;20195;-75
2022/12/03 12:27:11;;;;;;;17.33;14.20;;;3.60;99.90;;;;;;5070020;28;20239;-76
2022/12/03 12:29:39;;;;;;;20.80;14.20;;;3.50;99.90;;;;;;5051813;28;20686;-75
2022/12/03 12:32:07;;;;;;;21.57;16.87;;;3.50;99.90;;;;;;5052269;28;20181;-75
2022/12/03 12:34:36;;;;;;;26.40;18.67;;;3.50;99.90;;;;;;5053776;28;20216;-75
2022/12/03 12:37:05;;;;;;;16.97;13.23;;;3.50;99.90;;;;;;5052227;28;20303;-75
2022/12/03 12:39:31;;;;;;;24.27;15.13;;;3.50;99.90;;;;;;5051457;28;20228;-75
2022/12/03 12:41:57;;;;;;;18.03;13.80;;;3.50;99.90;;;;;;5051353;28;20271;-75
2022/12/03 12:44:25;;;;;;;27.70;17.47;;;3.50;99.90;;;;;;5064410;28;20181;-75
2022/12/03 12:46:53;;;;;;;15.07;11.20;;;3.50;99.90;;;;;;5070970;28;20241;-75
2022/12/03 12:49:25;;;;;;;26.33;15.60;;;3.50;99.90;;;;;;5071327;28;20208;-75
2022/12/03 12:51:51;;;;;;;28.97;14.00;;;3.50;99.90;;;;;;5070303;28;20181;-75
2022/12/03 12:54:17;;;;;;;16.83;11.50;;;3.50;99.90;;;;;;5070127;28;20238;-75
2022/12/03 12:56:46;;;;;;;20.50;12.10;;;3.40;99.90;;;;;;5051635;28;20209;-74
2022/12/03 12:59:18;;;;;;;27.97;16.00;;;3.40;99.90;;;;;;5051361;28;20182;-75
2022/12/03 13:01:46;;;;;;;15.93;11.47;;;3.40;99.90;;;;;;5056413;28;20301;-75
2022/12/03 13:04:16;;;;;;;16.03;11.03;;;3.50;99.90;;;;;;5051191;28;20589;-74
2022/12/03 13:06:42;;;;;;;22.70;13.57;;;3.40;99.90;;;;;;5050975;28;20229;-74
2022/12/03 13:09:22;;;;;;;28.20;15.43;;;3.40;99.90;;;;;;5056172;28;20646;-75